Edward J. Moran — WDC9891 — position and weather

sailwx.info

Track history (hours):
 
Tides and Currents Weather Stations Pressure Air Temp Water Temp Dewpoint Dewpoint Depression Visibility Wind Speed Wind Dir Waves Ship Positions

Edward J. Moran

Owner: Moran Towing Corporation, New Canaan, CT. More information available from US FCC via Universal Licensing System and Coast Guard Vessel Documentation Center.

Last reported at 2018-Apr-20 19:59 UTC. Time now 2018-Apr-20 20:12 UTC.
Position N 32°05' W 081°04'.

; draft 5.4 m.

Type: Tug. MMSI: 367108030.

Date/timePositionNaut miles runAvg speedWind from/ knotsBaromVisibWave heightAir tempDewpointWater temp
2018-Apr-20 19:59N 32°05' W 081°04'0 0.0
2018-Apr-20 19:30N 32°05' W 081°04'0 0.0
2018-Apr-20 19:00N 32°05' W 081°04'0 0.0
2018-Apr-20 18:30N 32°05' W 081°04'2 4.5
2018-Apr-20 18:00N 32°06' W 081°06'1 1.3
2018-Apr-20 17:30N 32°06' W 081°07'1 1.1
2018-Apr-20 17:00N 32°06' W 081°06'2 3.8
2018-Apr-20 16:30N 32°05' W 081°04'1 0.8
2018-Apr-20 15:52N 32°05' W 081°04'0 0.0
2018-Apr-20 15:30N 32°05' W 081°04'0 0.0
2018-Apr-20 15:00N 32°05' W 081°04'0 0.0
2018-Apr-20 14:30N 32°05' W 081°04'0 0.0
2018-Apr-20 14:00N 32°05' W 081°04'0 0.0
2018-Apr-20 13:30N 32°05' W 081°04'0 0.0
2018-Apr-20 13:00N 32°05' W 081°04'0 0.0
2018-Apr-20 12:30N 32°05' W 081°04'0 0.0
2018-Apr-20 12:00N 32°05' W 081°04'1 2.2
2018-Apr-20 11:30N 32°05' W 081°05'4 7.6
2018-Apr-20 11:00N 32°08' W 081°08'0 0.5
2018-Apr-20 10:30N 32°08' W 081°08'2 3.6
2018-Apr-20 10:00N 32°06' W 081°07'1 2.4
2018-Apr-20 09:30N 32°05' W 081°06'0 0.0
2018-Apr-20 09:00N 32°05' W 081°06'1 1.8
2018-Apr-20 08:30N 32°06' W 081°07'2 4.0
2018-Apr-20 08:00N 32°08' W 081°08'0 0.0
2018-Apr-20 07:30N 32°08' W 081°08'3 5.2
2018-Apr-20 07:01N 32°06' W 081°06'0 0.3
2018-Apr-20 06:30N 32°06' W 081°06'0 0.8
2018-Apr-20 06:00N 32°05' W 081°06'0 0.0
2018-Apr-20 05:31N 32°05' W 081°06'1 2.7
2018-Apr-20 05:00N 32°06' W 081°07'3 5.1
2018-Apr-20 04:30N 32°08' W 081°09'0 0.0
2018-Apr-20 04:01N 32°08' W 081°09'0 0.1
2018-Apr-20 03:31N 32°08' W 081°09'1 1.4
2018-Apr-20 02:59N 32°08' W 081°08'1 1.9
2018-Apr-20 02:31N 32°07' W 081°08'2 3.5
2018-Apr-20 02:01N 32°06' W 081°06'1 2.0
2018-Apr-20 01:30N 32°06' W 081°07'1 2.1
2018-Apr-20 01:00N 32°07' W 081°08'0 0.0
2018-Apr-20 00:31N 32°07' W 081°08'0 0.0
2018-Apr-20 00:00N 32°07' W 081°08'1 1.9
2018-Apr-19 23:31N 32°08' W 081°08'0 0.4
2018-Apr-19 23:01N 32°08' W 081°08'1 1.7
2018-Apr-19 22:30N 32°07' W 081°08'0 0.0
2018-Apr-19 22:01N 32°07' W 081°08'0 0.8
2018-Apr-19 21:31N 32°07' W 081°08'1 2.9
2018-Apr-19 21:00N 32°06' W 081°06'0 0.0
2018-Apr-19 20:30N 32°06' W 081°06'1 2.8
2018-Apr-19 20:00N 32°05' W 081°05'1 1.6
2018-Apr-19 19:30N 32°05' W 081°06'2 3.5
2018-Apr-19 19:00N 32°05' W 081°04'0 0.1
2018-Apr-19 18:30N 32°05' W 081°04'0 0.0
2018-Apr-19 18:01N 32°05' W 081°04'0 0.0
2018-Apr-19 17:30N 32°05' W 081°04'0 0.0
2018-Apr-19 17:00N 32°05' W 081°04'0 0.0
2018-Apr-19 16:30N 32°05' W 081°04'0 0.0
2018-Apr-19 16:01N 32°05' W 081°04'0 0.0
2018-Apr-19 15:29N 32°05' W 081°04'3 5.7
2018-Apr-19 15:00N 32°06' W 081°07'1 2.9
2018-Apr-19 14:31N 32°07' W 081°08'1 1.7
2018-Apr-19 14:01N 32°06' W 081°07'3 6.6
2018-Apr-19 13:30N 32°05' W 081°04'0 0.0
2018-Apr-19 13:01N 32°05' W 081°04'0 0.0
2018-Apr-19 12:30N 32°05' W 081°04'0 0.0
2018-Apr-19 11:59N 32°05' W 081°04'0 0.0
2018-Apr-19 11:31N 32°05' W 081°04'0 0.0
2018-Apr-19 10:43N 32°05' W 081°04'0 0.0
2018-Apr-19 10:27N 32°05' W 081°04'0 0.0
2018-Apr-19 10:00N 32°05' W 081°04'0 0.0
2018-Apr-19 09:30N 32°05' W 081°04'0 0.0
2018-Apr-19 08:51N 32°05' W 081°04'0 0.0
2018-Apr-19 08:30N 32°05' W 081°04'0 0.0
2018-Apr-19 08:01N 32°05' W 081°04'0 0.0
2018-Apr-19 07:31N 32°05' W 081°04'0 0.0
2018-Apr-19 07:00N 32°05' W 081°04'0 0.0
2018-Apr-19 06:26N 32°05' W 081°04'0 0.0
2018-Apr-19 06:01N 32°05' W 081°04'0 0.0
2018-Apr-19 05:30N 32°05' W 081°04'0 0.0
2018-Apr-19 04:58N 32°05' W 081°04'0 0.0
2018-Apr-19 04:31N 32°05' W 081°04'0 0.0
2018-Apr-19 03:57N 32°05' W 081°04'0 0.0
2018-Apr-19 03:26N 32°05' W 081°04'0 0.0
2018-Apr-19 03:00N 32°05' W 081°04'0 0.0
2018-Apr-19 02:31N 32°05' W 081°04'0 0.0
2018-Apr-19 01:56N 32°05' W 081°04'0 0.0
2018-Apr-19 01:30N 32°05' W 081°04'0 0.0
2018-Apr-19 01:00N 32°05' W 081°04'0 0.0
2018-Apr-19 00:30N 32°05' W 081°04'0 0.0
2018-Apr-19 00:00N 32°05' W 081°04'0 0.0
2018-Apr-18 23:19N 32°05' W 081°04'1 2.8
2018-Apr-18 23:01N 32°05' W 081°05'2 3.4
2018-Apr-18 22:31N 32°06' W 081°07'0 0.0
2018-Apr-18 22:00N 32°06' W 081°07'0 0.0
2018-Apr-18 21:31N 32°06' W 081°07'0 0.0
2018-Apr-18 21:01N 32°06' W 081°07'0 0.0
2018-Apr-18 20:31N 32°06' W 081°07'0 0.0
2018-Apr-18 20:01N 32°06' W 081°07'0 0.2
2018-Apr-18 19:30N 32°06' W 081°06'2 3.6
2018-Apr-18 19:01N 32°07' W 081°08'0 0.2
2018-Apr-18 18:30N 32°07' W 081°08'0 0.0
2018-Apr-18 18:00N 32°07' W 081°08'0 0.7
2018-Apr-18 17:30N 32°07' W 081°08'0 0.0
2018-Apr-18 17:01N 32°07' W 081°08'1 2.4
2018-Apr-18 16:31N 32°06' W 081°07'3 6.3
2018-Apr-18 16:00N 32°05' W 081°04'0 0.0
2018-Apr-18 15:31N 32°05' W 081°04'0 0.0
2018-Apr-18 15:00N 32°05' W 081°04'0 0.0
2018-Apr-18 14:31N 32°05' W 081°04'0 0.0
2018-Apr-18 14:01N 32°05' W 081°04'0 0.0
2018-Apr-18 13:30N 32°05' W 081°04'0 0.0
2018-Apr-18 13:00N 32°05' W 081°04'2 3.3
2018-Apr-18 12:30N 32°05' W 081°06'3 6.4
2018-Apr-18 12:00N 32°08' W 081°08'0 0.1
2018-Apr-18 11:30N 32°08' W 081°08'3 5.1
2018-Apr-18 11:01N 32°06' W 081°06'2 4.2
2018-Apr-18 10:29N 32°05' W 081°04'0 0.0
2018-Apr-18 10:00N 32°05' W 081°04'0 0.0
2018-Apr-18 09:30N 32°05' W 081°04'0 0.0
2018-Apr-18 09:00N 32°05' W 081°04'0 0.0
2018-Apr-18 08:30N 32°05' W 081°04'0 0.0
2018-Apr-18 08:01N 32°05' W 081°04'0 0.0
2018-Apr-18 07:31N 32°05' W 081°04'0 0.0
2018-Apr-18 07:00N 32°05' W 081°04'0 0.0
2018-Apr-18 06:25N 32°05' W 081°04'0 0.0
2018-Apr-18 05:58N 32°05' W 081°04'0 0.0
2018-Apr-18 05:31N 32°05' W 081°04'0 0.0
2018-Apr-18 05:00N 32°05' W 081°04'0 0.0
2018-Apr-18 04:30N 32°05' W 081°04'1 1.3
2018-Apr-18 04:00N 32°05' W 081°05'4 8.2
2018-Apr-18 03:30N 32°07' W 081°08'1 1.7
2018-Apr-18 03:01N 32°08' W 081°09'0 0.4
2018-Apr-18 02:31N 32°08' W 081°08'2 3.0
2018-Apr-18 02:00N 32°07' W 081°08'3 5.7
2018-Apr-18 01:31N 32°05' W 081°05'3 6.7
2018-Apr-18 01:00N 32°06' W 081°01'3 6.0
2018-Apr-18 00:31N 32°04' W 080°58'4 7.1
2018-Apr-18 00:00N 32°05' W 081°02'2 3.1
2018-Apr-17 23:30N 32°05' W 081°04'0 0.0
2018-Apr-17 23:01N 32°05' W 081°04'0 0.0
2018-Apr-17 22:31N 32°05' W 081°04'0 0.0
2018-Apr-17 22:01N 32°05' W 081°04'0 0.0
2018-Apr-17 21:31N 32°05' W 081°04'0 0.0
2018-Apr-17 21:00N 32°05' W 081°04'0 0.0
2018-Apr-17 20:31N 32°05' W 081°04'0 0.0
2018-Apr-17 20:00N 32°05' W 081°04'0 0.0
2018-Apr-17 19:31N 32°05' W 081°04'0 0.0
2018-Apr-17 19:01N 32°05' W 081°04'0 0.0
2018-Apr-17 18:30N 32°05' W 081°04'0 0.0
2018-Apr-17 18:01N 32°05' W 081°04'0 0.0
2018-Apr-17 17:30N 32°05' W 081°04'0 0.0
2018-Apr-17 16:59N 32°05' W 081°04'1 2.9
2018-Apr-17 16:30N 32°05' W 081°06'4 7.5
2018-Apr-17 16:00N 32°08' W 081°08'0 0.1
2018-Apr-17 15:30N 32°08' W 081°08'1 2.2
2018-Apr-17 15:01N 32°07' W 081°08'3 5.4
2018-Apr-17 14:30N 32°05' W 081°05'2 3.5
2018-Apr-17 14:01N 32°06' W 081°07'1 1.7
2018-Apr-17 13:30N 32°07' W 081°08'1 1.1
2018-Apr-17 12:59N 32°07' W 081°08'0 0.0
2018-Apr-17 12:30N 32°07' W 081°08'0 0.0
2018-Apr-17 12:00N 32°07' W 081°08'0 0.0
2018-Apr-17 11:30N 32°07' W 081°08'1 1.6
2018-Apr-17 11:00N 32°08' W 081°08'0 0.3
2018-Apr-17 10:30N 32°08' W 081°09'1 1.7
2018-Apr-17 10:01N 32°07' W 081°08'0 0.0
2018-Apr-17 09:31N 32°07' W 081°08'0 0.0
2018-Apr-17 08:58N 32°07' W 081°08'0 0.0
2018-Apr-17 08:30N 32°07' W 081°08'1 2.2
2018-Apr-17 08:00N 32°06' W 081°07'3 6.1
2018-Apr-17 07:30N 32°05' W 081°04'0 0.4
2018-Apr-17 07:00N 32°05' W 081°04'0 0.0
2018-Apr-17 06:30N 32°05' W 081°04'0 0.0
2018-Apr-17 05:51N 32°05' W 081°04'0 0.0
2018-Apr-17 05:26N 32°05' W 081°04'0 0.0
2018-Apr-17 04:55N 32°05' W 081°04'0 0.0
2018-Apr-17 04:31N 32°05' W 081°04'0 0.0
2018-Apr-17 03:59N 32°05' W 081°04'0 0.0
2018-Apr-17 03:26N 32°05' W 081°04'0 0.0
2018-Apr-17 03:01N 32°05' W 081°04'0 0.0
2018-Apr-17 02:30N 32°05' W 081°04'0 0.0
2018-Apr-17 02:01N 32°05' W 081°04'0 0.0
2018-Apr-17 01:27N 32°05' W 081°04'0 0.0
2018-Apr-17 01:00N 32°05' W 081°04'0 0.0
2018-Apr-17 00:30N 32°05' W 081°04'2 3.6
2018-Apr-17 00:01N 32°05' W 081°06'3 5.2
2018-Apr-16 23:30N 32°07' W 081°08'0 0.3
2018-Apr-16 23:00N 32°07' W 081°08'1 2.3
2018-Apr-16 22:30N 32°07' W 081°07'3 5.7
2018-Apr-16 21:56N 32°05' W 081°04'0 0.0
2018-Apr-16 21:31N 32°05' W 081°04'0 0.0
2018-Apr-16 21:00N 32°05' W 081°04'3 5.6
2018-Apr-16 20:30N 32°06' W 081°07'0 0.2
2018-Apr-16 20:01N 32°06' W 081°07'2 4.7
2018-Apr-16 19:30N 32°05' W 081°04'0 1.0
2018-Apr-16 19:01N 32°05' W 081°04'2 4.8
2018-Apr-16 18:30N 32°06' W 081°06'0 0.4
2018-Apr-16 18:01N 32°06' W 081°06'3 6.1
2018-Apr-16 17:30N 32°05' W 081°03'3 5.9
2018-Apr-16 17:01N 32°05' W 080°59'4 7.2
2018-Apr-16 16:30N 32°03' W 080°56'4 7.2
2018-Apr-16 16:01N 32°02' W 080°52'5 9.2
2018-Apr-16 15:30N 32°04' W 080°57'5 9.2
2018-Apr-16 15:00N 32°05' W 081°02'3 6.4
2018-Apr-16 14:30N 32°05' W 081°06'3 5.0
2018-Apr-16 14:00N 32°07' W 081°08'1 1.0
2018-Apr-16 13:30N 32°08' W 081°08'3 5.2
2018-Apr-16 13:00N 32°06' W 081°06'3 6.7
2018-Apr-16 12:29N 32°05' W 081°03'2 4.9
2018-Apr-16 12:00N 32°05' W 081°05'3 5.2
2018-Apr-16 11:30N 32°07' W 081°08'2 3.7
2018-Apr-16 11:00N 32°08' W 081°09'0 0.6
2018-Apr-16 10:30N 32°08' W 081°08'1 2.1
2018-Apr-16 10:00N 32°07' W 081°08'0 0.0
2018-Apr-16 09:30N 32°07' W 081°08'0 0.0
2018-Apr-16 09:00N 32°07' W 081°08'0 0.0
2018-Apr-16 08:30N 32°07' W 081°08'0 0.0
2018-Apr-16 08:00N 32°07' W 081°08'0 0.0
2018-Apr-16 07:30N 32°07' W 081°08'0 0.7
2018-Apr-16 07:00N 32°07' W 081°08'0 0.0
2018-Apr-16 06:30N 32°07' W 081°08'1 2.0
2018-Apr-16 06:00N 32°07' W 081°07'3 6.5
2018-Apr-16 05:28N 32°05' W 081°04'0 0.2
2018-Apr-16 05:00N 32°05' W 081°04'0 0.0
2018-Apr-16 04:30N 32°05' W 081°04'0 0.1
2018-Apr-16 04:00N 32°05' W 081°04'510.3
2018-Apr-16 03:30N 32°08' W 081°09'0 0.0
2018-Apr-16 03:01N 32°08' W 081°09'0 0.9
2018-Apr-16 02:30N 32°08' W 081°08'2 4.3
2018-Apr-16 02:01N 32°06' W 081°07'3 5.1
2018-Apr-16 01:30N 32°05' W 081°04'3 5.3
2018-Apr-16 01:01N 32°06' W 081°01'2 4.7
2018-Apr-16 00:30N 32°05' W 081°04'0 0.0
2018-Apr-16 00:00N 32°05' W 081°04'0 0.0
2018-Apr-15 23:31N 32°05' W 081°04'0 0.0
2018-Apr-15 23:00N 32°05' W 081°04'3 6.4
2018-Apr-15 22:31N 32°06' W 081°07'2 3.0
2018-Apr-15 21:59N 32°08' W 081°08'0 0.9
2018-Apr-15 21:30N 32°07' W 081°08'0 0.0
2018-Apr-15 21:00N 32°07' W 081°08'0 0.0
2018-Apr-15 20:30N 32°07' W 081°08'0 0.0
2018-Apr-15 19:59N 32°07' W 081°08'0 0.0
2018-Apr-15 19:31N 32°07' W 081°08'0 0.0
2018-Apr-15 19:00N 32°07' W 081°08'0 0.0
2018-Apr-15 18:31N 32°07' W 081°08'0 0.0
2018-Apr-15 18:01N 32°07' W 081°08'0 0.0
2018-Apr-15 17:30N 32°07' W 081°08'0 0.4
2018-Apr-15 17:00N 32°07' W 081°08'0 0.0
2018-Apr-15 16:30N 32°07' W 081°08'0 0.7
2018-Apr-15 16:01N 32°08' W 081°08'2 4.2
2018-Apr-15 15:31N 32°06' W 081°07'0 0.9
2018-Apr-15 15:01N 32°06' W 081°07'2 4.4
2018-Apr-15 14:31N 32°08' W 081°09'0 0.6
2018-Apr-15 14:00N 32°08' W 081°08'2 4.5
2018-Apr-15 13:30N 32°06' W 081°07'2 5.0
2018-Apr-15 13:01N 32°05' W 081°05'2 4.7
2018-Apr-15 12:30N 32°05' W 081°02'1 2.1
2018-Apr-15 12:01N 32°05' W 081°03'1 1.6
2018-Apr-15 11:30N 32°05' W 081°04'0 0.0
2018-Apr-15 11:01N 32°05' W 081°04'2 3.3
2018-Apr-15 10:31N 32°05' W 081°06'3 5.4
2018-Apr-15 10:00N 32°07' W 081°08'1 1.7
2018-Apr-15 09:31N 32°06' W 081°07'3 6.1
2018-Apr-15 08:58N 32°05' W 081°04'0 0.0
2018-Apr-15 08:31N 32°05' W 081°04'0 0.0
2018-Apr-15 08:00N 32°05' W 081°04'0 0.0
2018-Apr-15 07:30N 32°05' W 081°04'0 0.0
2018-Apr-15 07:00N 32°05' W 081°04'0 0.0
2018-Apr-15 06:30N 32°05' W 081°04'0 0.0
2018-Apr-15 06:00N 32°05' W 081°04'0 0.0
2018-Apr-15 05:30N 32°05' W 081°04'0 0.0
2018-Apr-15 05:00N 32°05' W 081°04'0 0.0
2018-Apr-15 04:31N 32°05' W 081°04'1 1.7
2018-Apr-15 04:01N 32°05' W 081°05'4 8.6
2018-Apr-15 03:31N 32°08' W 081°08'0 0.0
2018-Apr-15 03:01N 32°08' W 081°08'0 0.8
2018-Apr-15 02:30N 32°08' W 081°08'2 4.5
2018-Apr-15 02:01N 32°06' W 081°06'2 4.9
2018-Apr-15 01:30N 32°05' W 081°04'2 4.5
2018-Apr-15 01:00N 32°06' W 081°01'2 4.6
2018-Apr-15 00:30N 32°05' W 081°04'2 2.4
2018-Apr-14 23:47N 32°05' W 081°06'2 6.0
2018-Apr-14 23:30N 32°05' W 081°04'2 3.6
2018-Apr-14 23:00N 32°05' W 081°06'2 3.2
2018-Apr-14 22:30N 32°07' W 081°07'2 3.8
2018-Apr-14 22:00N 32°08' W 081°08'0 0.2
2018-Apr-14 21:31N 32°08' W 081°08'0 0.2
2018-Apr-14 21:01N 32°08' W 081°09'0 1.0
2018-Apr-14 20:30N 32°08' W 081°08'1 1.1
2018-Apr-14 20:00N 32°07' W 081°08'1 1.8
2018-Apr-14 19:31N 32°08' W 081°08'2 3.9
2018-Apr-14 19:00N 32°06' W 081°07'2 4.6
2018-Apr-14 18:31N 32°05' W 081°05'1 2.1
2018-Apr-14 18:01N 32°05' W 081°04'0 0.0
2018-Apr-14 17:31N 32°05' W 081°04'0 0.0
2018-Apr-14 17:00N 32°05' W 081°04'0 0.0
2018-Apr-14 16:30N 32°05' W 081°04'0 0.0
2018-Apr-14 16:01N 32°05' W 081°04'0 0.0
2018-Apr-14 15:30N 32°05' W 081°04'0 0.0
2018-Apr-14 14:59N 32°05' W 081°04'0 0.0
2018-Apr-14 14:31N 32°05' W 081°04'0 0.0
2018-Apr-14 14:00N 32°05' W 081°04'0 0.0
2018-Apr-14 13:30N 32°05' W 081°04'0 0.0
2018-Apr-14 13:01N 32°05' W 081°04'0 0.0
2018-Apr-14 12:31N 32°05' W 081°04'0 0.0
2018-Apr-14 12:00N 32°05' W 081°04'3 5.1
2018-Apr-14 11:30N 32°06' W 081°07'2 3.3
2018-Apr-14 11:00N 32°07' W 081°08'1 1.6
2018-Apr-14 10:30N 32°08' W 081°08'1 1.6
2018-Apr-14 10:00N 32°07' W 081°08'0 0.7
2018-Apr-14 09:30N 32°07' W 081°08'0 0.3
2018-Apr-14 09:00N 32°08' W 081°08'1 2.0
2018-Apr-14 08:30N 32°07' W 081°07'0 0.8
2018-Apr-14 08:01N 32°07' W 081°08'3 6.8
2018-Apr-14 07:31N 32°05' W 081°05'1 1.6
2018-Apr-14 07:00N 32°05' W 081°04'0 0.0
2018-Apr-14 06:28N 32°05' W 081°04'0 0.0
2018-Apr-14 06:00N 32°05' W 081°04'0 0.0
2018-Apr-14 05:31N 32°05' W 081°04'0 0.0
2018-Apr-14 05:00N 32°05' W 081°04'0 0.0
2018-Apr-14 04:30N 32°05' W 081°04'0 0.0
2018-Apr-14 04:00N 32°05' W 081°04'0 0.0
2018-Apr-14 03:28N 32°05' W 081°04'0 0.0
2018-Apr-14 03:01N 32°05' W 081°04'0 0.0
2018-Apr-14 02:26N 32°05' W 081°04'0 0.0
2018-Apr-14 02:00N 32°05' W 081°04'2 3.8
2018-Apr-14 01:31N 32°05' W 081°06'1 1.8
2018-Apr-14 01:00N 32°06' W 081°07'1 1.3
2018-Apr-14 00:31N 32°07' W 081°07'0 0.6
2018-Apr-14 00:00N 32°07' W 081°08'2 3.7
2018-Apr-13 23:30N 32°08' W 081°09'0 0.9
2018-Apr-13 23:01N 32°08' W 081°08'2 4.5
2018-Apr-13 22:30N 32°06' W 081°07'3 5.2
2018-Apr-13 22:00N 32°05' W 081°04'3 6.7
2018-Apr-13 21:30N 32°06' W 081°01'0 1.0
2018-Apr-13 21:00N 32°06' W 081°01'4 8.2
2018-Apr-13 20:31N 32°05' W 081°06'4 7.5
2018-Apr-13 20:00N 32°08' W 081°09'0 0.5
2018-Apr-13 19:30N 32°08' W 081°08'2 4.5
2018-Apr-13 19:00N 32°06' W 081°07'3 5.6
2018-Apr-13 18:31N 32°05' W 081°04'1 1.8
2018-Apr-13 18:00N 32°05' W 081°03'1 1.8
2018-Apr-13 17:30N 32°05' W 081°04'0 0.0
2018-Apr-13 17:00N 32°05' W 081°04'0 0.0
2018-Apr-13 16:30N 32°05' W 081°04'0 0.0
2018-Apr-13 16:01N 32°05' W 081°04'0 0.0
2018-Apr-13 15:31N 32°05' W 081°04'0 0.0
2018-Apr-13 15:01N 32°05' W 081°04'0 0.0
2018-Apr-13 14:30N 32°05' W 081°04'0 0.0
2018-Apr-13 14:00N 32°05' W 081°04'0 0.0
2018-Apr-13 13:31N 32°05' W 081°04'0 0.0
2018-Apr-13 13:01N 32°05' W 081°04'0 0.0
2018-Apr-13 12:30N 32°05' W 081°04'0 0.0
2018-Apr-13 12:01N 32°05' W 081°04'0 0.0
2018-Apr-13 11:30N 32°05' W 081°04'0 0.0
2018-Apr-13 11:00N 32°05' W 081°04'0 0.0
2018-Apr-13 10:31N 32°05' W 081°04'0 0.0
2018-Apr-13 09:59N 32°05' W 081°04'0 0.0
2018-Apr-13 09:30N 32°05' W 081°04'0 0.0
2018-Apr-13 08:59N 32°05' W 081°04'1 2.8
2018-Apr-13 08:30N 32°05' W 081°05'4 7.2
2018-Apr-13 08:00N 32°08' W 081°08'0 0.7
2018-Apr-13 07:31N 32°07' W 081°08'0 0.3
2018-Apr-13 07:00N 32°07' W 081°08'0 0.0
2018-Apr-13 06:30N 32°07' W 081°08'0 0.0
2018-Apr-13 06:00N 32°07' W 081°08'0 0.0
2018-Apr-13 05:31N 32°07' W 081°08'0 0.0
2018-Apr-13 04:57N 32°07' W 081°08'1 1.3
2018-Apr-13 04:31N 32°08' W 081°08'1 1.3
2018-Apr-13 04:00N 32°07' W 081°08'0 0.3
2018-Apr-13 03:31N 32°07' W 081°08'0 0.0
2018-Apr-13 03:00N 32°07' W 081°08'0 0.0
2018-Apr-13 02:30N 32°07' W 081°08'0 0.0
2018-Apr-13 01:59N 32°07' W 081°08'2 3.3
2018-Apr-13 01:30N 32°06' W 081°07'3 7.2
2018-Apr-13 01:01N 32°05' W 081°03'2 3.4
2018-Apr-13 00:30N 32°05' W 081°05'3 5.4
2018-Apr-13 00:00N 32°07' W 081°07'2 4.1
2018-Apr-12 23:31N 32°08' W 081°09'0 0.1
2018-Apr-12 23:00N 32°08' W 081°09'1 1.1
2018-Apr-12 22:30N 32°08' W 081°08'0 0.0
2018-Apr-12 22:00N 32°08' W 081°08'1 1.0
2018-Apr-12 21:31N 32°07' W 081°08'1 1.0
2018-Apr-12 21:01N 32°08' W 081°08'2 4.5
2018-Apr-12 20:30N 32°06' W 081°07'1 1.5
2018-Apr-12 20:00N 32°05' W 081°06'1 1.6
2018-Apr-12 19:30N 32°06' W 081°07'0 0.0
2018-Apr-12 19:00N 32°06' W 081°07'3 5.4
2018-Apr-12 18:29N 32°05' W 081°04'0 0.0
2018-Apr-12 18:00N 32°05' W 081°04'0 0.0
2018-Apr-12 17:30N 32°05' W 081°04'0 0.0
2018-Apr-12 16:59N 32°05' W 081°04'0 0.0
2018-Apr-12 16:25N 32°05' W 081°04'0 0.0
2018-Apr-12 16:00N 32°05' W 081°04'0 0.0
2018-Apr-12 15:29N 32°05' W 081°04'0 0.0
2018-Apr-12 15:00N 32°05' W 081°04'0 0.1
2018-Apr-12 14:30N 32°05' W 081°04'0 0.1
2018-Apr-12 13:56N 32°05' W 081°04'0 0.2
2018-Apr-12 13:30N 32°05' W 081°04'0 0.2
2018-Apr-12 13:00N 32°05' W 081°04'0 0.0
2018-Apr-12 12:29N 32°05' W 081°04'0 0.0
2018-Apr-12 12:00N 32°05' W 081°04'3 6.8
2018-Apr-12 11:30N 32°07' W 081°07'1 2.9
2018-Apr-12 11:00N 32°08' W 081°08'0 0.4
2018-Apr-12 10:30N 32°08' W 081°09'0 0.0
2018-Apr-12 10:00N 32°08' W 081°09'1 2.1
2018-Apr-12 09:30N 32°07' W 081°08'0 0.0
2018-Apr-12 09:00N 32°07' W 081°08'0 0.0
2018-Apr-12 08:28N 32°07' W 081°08'0 0.0
2018-Apr-12 07:58N 32°07' W 081°08'0 0.0
2018-Apr-12 07:30N 32°07' W 081°08'0 0.0
2018-Apr-12 07:00N 32°07' W 081°08'0 0.0
2018-Apr-12 06:29N 32°07' W 081°08'0 0.0
2018-Apr-12 06:00N 32°07' W 081°08'0 0.0
2018-Apr-12 05:30N 32°07' W 081°08'0 0.0
2018-Apr-12 05:00N 32°07' W 081°08'0 0.0
2018-Apr-12 04:30N 32°07' W 081°08'0 0.0
2018-Apr-12 04:00N 32°07' W 081°08'0 0.0
2018-Apr-12 03:30N 32°07' W 081°08'0 0.0
2018-Apr-12 03:00N 32°07' W 081°08'0 0.0
2018-Apr-12 02:29N 32°07' W 081°08'0 0.0
2018-Apr-12 01:59N 32°07' W 081°08'0 0.0
2018-Apr-12 01:30N 32°07' W 081°08'0 0.0
2018-Apr-12 01:00N 32°07' W 081°08'1 1.2
2018-Apr-12 00:30N 32°08' W 081°08'0 0.5
2018-Apr-12 00:00N 32°08' W 081°08'0 0.1
2018-Apr-11 23:31N 32°08' W 081°08'2 4.6
2018-Apr-11 23:00N 32°06' W 081°07'1 2.8
2018-Apr-11 22:30N 32°07' W 081°08'2 3.4
2018-Apr-11 22:00N 32°09' W 081°09'0 0.9
2018-Apr-11 21:30N 32°08' W 081°08'1 1.5
2018-Apr-11 21:00N 32°07' W 081°08'0 0.8
2018-Apr-11 20:30N 32°08' W 081°08'2 3.2
2018-Apr-11 20:00N 32°07' W 081°07'1 2.9
2018-Apr-11 19:30N 32°05' W 081°06'0 0.0
2018-Apr-11 19:00N 32°05' W 081°06'2 3.2
2018-Apr-11 18:30N 32°05' W 081°04'1 2.3
2018-Apr-11 18:01N 32°05' W 081°06'2 4.4
2018-Apr-11 17:30N 32°07' W 081°08'1 2.4
2018-Apr-11 17:00N 32°08' W 081°08'0 0.1
2018-Apr-11 16:26N 32°08' W 081°08'0 0.0
2018-Apr-11 16:00N 32°08' W 081°08'0 0.0
2018-Apr-11 15:29N 32°08' W 081°08'2 3.8
2018-Apr-11 14:57N 32°06' W 081°07'3 5.7
2018-Apr-11 14:30N 32°05' W 081°05'1 1.3
2018-Apr-11 14:00N 32°05' W 081°04'0 0.0
2018-Apr-11 13:30N 32°05' W 081°04'0 0.0
2018-Apr-11 13:00N 32°05' W 081°04'0 0.0
2018-Apr-11 12:29N 32°05' W 081°04'0 0.0
2018-Apr-11 12:00N 32°05' W 081°04'0 0.0
2018-Apr-11 11:30N 32°05' W 081°04'0 0.0
2018-Apr-11 11:00N 32°05' W 081°04'0 0.0
2018-Apr-11 10:30N 32°05' W 081°04'4 7.7
2018-Apr-11 10:00N 32°07' W 081°08'1 1.2
2018-Apr-11 09:30N 32°07' W 081°08'0 0.4
2018-Apr-11 09:00N 32°07' W 081°08'2 4.7
2018-Apr-11 08:30N 32°05' W 081°06'0 0.0
2018-Apr-11 08:00N 32°05' W 081°06'0 0.0
2018-Apr-11 07:30N 32°05' W 081°06'0 0.0
2018-Apr-11 07:00N 32°05' W 081°06'2 5.0
2018-Apr-11 06:31N 32°07' W 081°08'0 0.1
2018-Apr-11 06:00N 32°07' W 081°08'0 0.4
2018-Apr-11 05:30N 32°07' W 081°08'0 0.0
2018-Apr-11 05:00N 32°07' W 081°08'1 2.3
2018-Apr-11 04:30N 32°06' W 081°07'1 1.1
2018-Apr-11 04:00N 32°07' W 081°08'0 0.7
2018-Apr-11 03:30N 32°07' W 081°08'0 0.5
2018-Apr-11 03:00N 32°07' W 081°08'3 5.0
2018-Apr-11 02:30N 32°05' W 081°06'1 3.0
2018-Apr-11 02:00N 32°05' W 081°04'0 0.0
2018-Apr-11 01:30N 32°05' W 081°04'0 0.0
2018-Apr-11 01:00N 32°05' W 081°04'0 0.0
2018-Apr-11 00:29N 32°05' W 081°04'0 0.0
2018-Apr-10 23:59N 32°05' W 081°04'0 0.0
2018-Apr-10 23:27N 32°05' W 081°04'0 0.0
2018-Apr-10 23:00N 32°05' W 081°04'3 6.6
2018-Apr-10 22:30N 32°06' W 081°07'0 0.9
2018-Apr-10 22:00N 32°06' W 081°07'0 0.3
2018-Apr-10 21:30N 32°06' W 081°07'0 0.0
2018-Apr-10 21:00N 32°06' W 081°07'2 4.2
2018-Apr-10 20:30N 32°08' W 081°08'0 0.7
2018-Apr-10 20:00N 32°08' W 081°09'  
Track history (hours):
 
Tides and Currents Weather Stations Pressure Air Temp Water Temp Dewpoint Dewpoint Depression Visibility Wind Speed Wind Dir Waves Ship Positions

Edward J. Moran

Owner: Moran Towing Corporation, New Canaan, CT. More information available from US FCC via Universal Licensing System and Coast Guard Vessel Documentation Center.

Last reported at 2018-Apr-20 19:59 UTC. Time now 2018-Apr-20 20:12 UTC.
Position N 32°05' W 081°04'.

; draft 5.4 m.

Type: Tug. MMSI: 367108030.

Date/timePositionNaut miles runAvg speedWind from/ knotsBaromVisibWave heightAir tempDewpointWater temp
2018-Apr-20 19:59N 32°05' W 081°04'0 0.0
2018-Apr-20 19:30N 32°05' W 081°04'0 0.0
2018-Apr-20 19:00N 32°05' W 081°04'0 0.0
2018-Apr-20 18:30N 32°05' W 081°04'2 4.5
2018-Apr-20 18:00N 32°06' W 081°06'1 1.3
2018-Apr-20 17:30N 32°06' W 081°07'1 1.1
2018-Apr-20 17:00N 32°06' W 081°06'2 3.8
2018-Apr-20 16:30N 32°05' W 081°04'1 0.8
2018-Apr-20 15:52N 32°05' W 081°04'0 0.0
2018-Apr-20 15:30N 32°05' W 081°04'0 0.0
2018-Apr-20 15:00N 32°05' W 081°04'0 0.0
2018-Apr-20 14:30N 32°05' W 081°04'0 0.0
2018-Apr-20 14:00N 32°05' W 081°04'0 0.0
2018-Apr-20 13:30N 32°05' W 081°04'0 0.0
2018-Apr-20 13:00N 32°05' W 081°04'0 0.0
2018-Apr-20 12:30N 32°05' W 081°04'0 0.0
2018-Apr-20 12:00N 32°05' W 081°04'1 2.2
2018-Apr-20 11:30N 32°05' W 081°05'4 7.6
2018-Apr-20 11:00N 32°08' W 081°08'0 0.5
2018-Apr-20 10:30N 32°08' W 081°08'2 3.6
2018-Apr-20 10:00N 32°06' W 081°07'1 2.4
2018-Apr-20 09:30N 32°05' W 081°06'0 0.0
2018-Apr-20 09:00N 32°05' W 081°06'1 1.8
2018-Apr-20 08:30N 32°06' W 081°07'2 4.0
2018-Apr-20 08:00N 32°08' W 081°08'0 0.0
2018-Apr-20 07:30N 32°08' W 081°08'3 5.2
2018-Apr-20 07:01N 32°06' W 081°06'0 0.3
2018-Apr-20 06:30N 32°06' W 081°06'0 0.8
2018-Apr-20 06:00N 32°05' W 081°06'0 0.0
2018-Apr-20 05:31N 32°05' W 081°06'1 2.7
2018-Apr-20 05:00N 32°06' W 081°07'3 5.1
2018-Apr-20 04:30N 32°08' W 081°09'0 0.0
2018-Apr-20 04:01N 32°08' W 081°09'0 0.1
2018-Apr-20 03:31N 32°08' W 081°09'1 1.4
2018-Apr-20 02:59N 32°08' W 081°08'1 1.9
2018-Apr-20 02:31N 32°07' W 081°08'2 3.5
2018-Apr-20 02:01N 32°06' W 081°06'1 2.0
2018-Apr-20 01:30N 32°06' W 081°07'1 2.1
2018-Apr-20 01:00N 32°07' W 081°08'0 0.0
2018-Apr-20 00:31N 32°07' W 081°08'0 0.0
2018-Apr-20 00:00N 32°07' W 081°08'1 1.9
2018-Apr-19 23:31N 32°08' W 081°08'0 0.4
2018-Apr-19 23:01N 32°08' W 081°08'1 1.7
2018-Apr-19 22:30N 32°07' W 081°08'0 0.0
2018-Apr-19 22:01N 32°07' W 081°08'0 0.8
2018-Apr-19 21:31N 32°07' W 081°08'1 2.9
2018-Apr-19 21:00N 32°06' W 081°06'0 0.0
2018-Apr-19 20:30N 32°06' W 081°06'1 2.8
2018-Apr-19 20:00N 32°05' W 081°05'1 1.6
2018-Apr-19 19:30N 32°05' W 081°06'2 3.5
2018-Apr-19 19:00N 32°05' W 081°04'0 0.1
2018-Apr-19 18:30N 32°05' W 081°04'0 0.0
2018-Apr-19 18:01N 32°05' W 081°04'0 0.0
2018-Apr-19 17:30N 32°05' W 081°04'0 0.0
2018-Apr-19 17:00N 32°05' W 081°04'0 0.0
2018-Apr-19 16:30N 32°05' W 081°04'0 0.0
2018-Apr-19 16:01N 32°05' W 081°04'0 0.0
2018-Apr-19 15:29N 32°05' W 081°04'3 5.7
2018-Apr-19 15:00N 32°06' W 081°07'1 2.9
2018-Apr-19 14:31N 32°07' W 081°08'1 1.7
2018-Apr-19 14:01N 32°06' W 081°07'3 6.6
2018-Apr-19 13:30N 32°05' W 081°04'0 0.0
2018-Apr-19 13:01N 32°05' W 081°04'0 0.0
2018-Apr-19 12:30N 32°05' W 081°04'0 0.0
2018-Apr-19 11:59N 32°05' W 081°04'0 0.0
2018-Apr-19 11:31N 32°05' W 081°04'0 0.0
2018-Apr-19 10:43N 32°05' W 081°04'0 0.0
2018-Apr-19 10:27N 32°05' W 081°04'0 0.0
2018-Apr-19 10:00N 32°05' W 081°04'0 0.0
2018-Apr-19 09:30N 32°05' W 081°04'0 0.0
2018-Apr-19 08:51N 32°05' W 081°04'0 0.0
2018-Apr-19 08:30N 32°05' W 081°04'0 0.0
2018-Apr-19 08:01N 32°05' W 081°04'0 0.0
2018-Apr-19 07:31N 32°05' W 081°04'0 0.0
2018-Apr-19 07:00N 32°05' W 081°04'0 0.0
2018-Apr-19 06:26N 32°05' W 081°04'0 0.0
2018-Apr-19 06:01N 32°05' W 081°04'0 0.0
2018-Apr-19 05:30N 32°05' W 081°04'0 0.0
2018-Apr-19 04:58N 32°05' W 081°04'0 0.0
2018-Apr-19 04:31N 32°05' W 081°04'0 0.0
2018-Apr-19 03:57N 32°05' W 081°04'0 0.0
2018-Apr-19 03:26N 32°05' W 081°04'0 0.0
2018-Apr-19 03:00N 32°05' W 081°04'0 0.0
2018-Apr-19 02:31N 32°05' W 081°04'0 0.0
2018-Apr-19 01:56N 32°05' W 081°04'0 0.0
2018-Apr-19 01:30N 32°05' W 081°04'0 0.0
2018-Apr-19 01:00N 32°05' W 081°04'0 0.0
2018-Apr-19 00:30N 32°05' W 081°04'0 0.0
2018-Apr-19 00:00N 32°05' W 081°04'0 0.0
2018-Apr-18 23:19N 32°05' W 081°04'1 2.8
2018-Apr-18 23:01N 32°05' W 081°05'2 3.4
2018-Apr-18 22:31N 32°06' W 081°07'0 0.0
2018-Apr-18 22:00N 32°06' W 081°07'0 0.0
2018-Apr-18 21:31N 32°06' W 081°07'0 0.0
2018-Apr-18 21:01N 32°06' W 081°07'0 0.0
2018-Apr-18 20:31N 32°06' W 081°07'0 0.0
2018-Apr-18 20:01N 32°06' W 081°07'0 0.2
2018-Apr-18 19:30N 32°06' W 081°06'2 3.6
2018-Apr-18 19:01N 32°07' W 081°08'0 0.2
2018-Apr-18 18:30N 32°07' W 081°08'0 0.0
2018-Apr-18 18:00N 32°07' W 081°08'0 0.7
2018-Apr-18 17:30N 32°07' W 081°08'0 0.0
2018-Apr-18 17:01N 32°07' W 081°08'1 2.4
2018-Apr-18 16:31N 32°06' W 081°07'3 6.3
2018-Apr-18 16:00N 32°05' W 081°04'0 0.0
2018-Apr-18 15:31N 32°05' W 081°04'0 0.0
2018-Apr-18 15:00N 32°05' W 081°04'0 0.0
2018-Apr-18 14:31N 32°05' W 081°04'0 0.0
2018-Apr-18 14:01N 32°05' W 081°04'0 0.0
2018-Apr-18 13:30N 32°05' W 081°04'0 0.0
2018-Apr-18 13:00N 32°05' W 081°04'2 3.3
2018-Apr-18 12:30N 32°05' W 081°06'3 6.4
2018-Apr-18 12:00N 32°08' W 081°08'0 0.1
2018-Apr-18 11:30N 32°08' W 081°08'3 5.1
2018-Apr-18 11:01N 32°06' W 081°06'2 4.2
2018-Apr-18 10:29N 32°05' W 081°04'0 0.0
2018-Apr-18 10:00N 32°05' W 081°04'0 0.0
2018-Apr-18 09:30N 32°05' W 081°04'0 0.0
2018-Apr-18 09:00N 32°05' W 081°04'0 0.0
2018-Apr-18 08:30N 32°05' W 081°04'0 0.0
2018-Apr-18 08:01N 32°05' W 081°04'0 0.0
2018-Apr-18 07:31N 32°05' W 081°04'0 0.0
2018-Apr-18 07:00N 32°05' W 081°04'0 0.0
2018-Apr-18 06:25N 32°05' W 081°04'0 0.0
2018-Apr-18 05:58N 32°05' W 081°04'0 0.0
2018-Apr-18 05:31N 32°05' W 081°04'0 0.0
2018-Apr-18 05:00N 32°05' W 081°04'0 0.0
2018-Apr-18 04:30N 32°05' W 081°04'1 1.3
2018-Apr-18 04:00N 32°05' W 081°05'4 8.2
2018-Apr-18 03:30N 32°07' W 081°08'1 1.7
2018-Apr-18 03:01N 32°08' W 081°09'0 0.4
2018-Apr-18 02:31N 32°08' W 081°08'2 3.0
2018-Apr-18 02:00N 32°07' W 081°08'3 5.7
2018-Apr-18 01:31N 32°05' W 081°05'3 6.7
2018-Apr-18 01:00N 32°06' W 081°01'3 6.0
2018-Apr-18 00:31N 32°04' W 080°58'4 7.1
2018-Apr-18 00:00N 32°05' W 081°02'2 3.1
2018-Apr-17 23:30N 32°05' W 081°04'0 0.0
2018-Apr-17 23:01N 32°05' W 081°04'0 0.0
2018-Apr-17 22:31N 32°05' W 081°04'0 0.0
2018-Apr-17 22:01N 32°05' W 081°04'0 0.0
2018-Apr-17 21:31N 32°05' W 081°04'0 0.0
2018-Apr-17 21:00N 32°05' W 081°04'0 0.0
2018-Apr-17 20:31N 32°05' W 081°04'0 0.0
2018-Apr-17 20:00N 32°05' W 081°04'0 0.0
2018-Apr-17 19:31N 32°05' W 081°04'0 0.0
2018-Apr-17 19:01N 32°05' W 081°04'0 0.0
2018-Apr-17 18:30N 32°05' W 081°04'0 0.0
2018-Apr-17 18:01N 32°05' W 081°04'0 0.0
2018-Apr-17 17:30N 32°05' W 081°04'0 0.0
2018-Apr-17 16:59N 32°05' W 081°04'1 2.9
2018-Apr-17 16:30N 32°05' W 081°06'4 7.5
2018-Apr-17 16:00N 32°08' W 081°08'0 0.1
2018-Apr-17 15:30N 32°08' W 081°08'1 2.2
2018-Apr-17 15:01N 32°07' W 081°08'3 5.4
2018-Apr-17 14:30N 32°05' W 081°05'2 3.5
2018-Apr-17 14:01N 32°06' W 081°07'1 1.7
2018-Apr-17 13:30N 32°07' W 081°08'1 1.1
2018-Apr-17 12:59N 32°07' W 081°08'0 0.0
2018-Apr-17 12:30N 32°07' W 081°08'0 0.0
2018-Apr-17 12:00N 32°07' W 081°08'0 0.0
2018-Apr-17 11:30N 32°07' W 081°08'1 1.6
2018-Apr-17 11:00N 32°08' W 081°08'0 0.3
2018-Apr-17 10:30N 32°08' W 081°09'1 1.7
2018-Apr-17 10:01N 32°07' W 081°08'0 0.0
2018-Apr-17 09:31N 32°07' W 081°08'0 0.0
2018-Apr-17 08:58N 32°07' W 081°08'0 0.0
2018-Apr-17 08:30N 32°07' W 081°08'1 2.2
2018-Apr-17 08:00N 32°06' W 081°07'3 6.1
2018-Apr-17 07:30N 32°05' W 081°04'0 0.4
2018-Apr-17 07:00N 32°05' W 081°04'0 0.0
2018-Apr-17 06:30N 32°05' W 081°04'0 0.0
2018-Apr-17 05:51N 32°05' W 081°04'0 0.0
2018-Apr-17 05:26N 32°05' W 081°04'0 0.0
2018-Apr-17 04:55N 32°05' W 081°04'0 0.0
2018-Apr-17 04:31N 32°05' W 081°04'0 0.0
2018-Apr-17 03:59N 32°05' W 081°04'0 0.0
2018-Apr-17 03:26N 32°05' W 081°04'0 0.0
2018-Apr-17 03:01N 32°05' W 081°04'0 0.0
2018-Apr-17 02:30N 32°05' W 081°04'0 0.0
2018-Apr-17 02:01N 32°05' W 081°04'0 0.0
2018-Apr-17 01:27N 32°05' W 081°04'0 0.0
2018-Apr-17 01:00N 32°05' W 081°04'0 0.0
2018-Apr-17 00:30N 32°05' W 081°04'2 3.6
2018-Apr-17 00:01N 32°05' W 081°06'3 5.2
2018-Apr-16 23:30N 32°07' W 081°08'0 0.3
2018-Apr-16 23:00N 32°07' W 081°08'1 2.3
2018-Apr-16 22:30N 32°07' W 081°07'3 5.7
2018-Apr-16 21:56N 32°05' W 081°04'0 0.0
2018-Apr-16 21:31N 32°05' W 081°04'0 0.0
2018-Apr-16 21:00N 32°05' W 081°04'3 5.6
2018-Apr-16 20:30N 32°06' W 081°07'0 0.2
2018-Apr-16 20:01N 32°06' W 081°07'2 4.7
2018-Apr-16 19:30N 32°05' W 081°04'0 1.0
2018-Apr-16 19:01N 32°05' W 081°04'2 4.8
2018-Apr-16 18:30N 32°06' W 081°06'0 0.4
2018-Apr-16 18:01N 32°06' W 081°06'3 6.1
2018-Apr-16 17:30N 32°05' W 081°03'3 5.9
2018-Apr-16 17:01N 32°05' W 080°59'4 7.2
2018-Apr-16 16:30N 32°03' W 080°56'4 7.2
2018-Apr-16 16:01N 32°02' W 080°52'5 9.2
2018-Apr-16 15:30N 32°04' W 080°57'5 9.2
2018-Apr-16 15:00N 32°05' W 081°02'3 6.4
2018-Apr-16 14:30N 32°05' W 081°06'3 5.0
2018-Apr-16 14:00N 32°07' W 081°08'1 1.0
2018-Apr-16 13:30N 32°08' W 081°08'3 5.2
2018-Apr-16 13:00N 32°06' W 081°06'3 6.7
2018-Apr-16 12:29N 32°05' W 081°03'2 4.9
2018-Apr-16 12:00N 32°05' W 081°05'3 5.2
2018-Apr-16 11:30N 32°07' W 081°08'2 3.7
2018-Apr-16 11:00N 32°08' W 081°09'0 0.6
2018-Apr-16 10:30N 32°08' W 081°08'1 2.1
2018-Apr-16 10:00N 32°07' W 081°08'0 0.0
2018-Apr-16 09:30N 32°07' W 081°08'0 0.0
2018-Apr-16 09:00N 32°07' W 081°08'0 0.0
2018-Apr-16 08:30N 32°07' W 081°08'0 0.0
2018-Apr-16 08:00N 32°07' W 081°08'0 0.0
2018-Apr-16 07:30N 32°07' W 081°08'0 0.7
2018-Apr-16 07:00N 32°07' W 081°08'0 0.0
2018-Apr-16 06:30N 32°07' W 081°08'1 2.0
2018-Apr-16 06:00N 32°07' W 081°07'3 6.5
2018-Apr-16 05:28N 32°05' W 081°04'0 0.2
2018-Apr-16 05:00N 32°05' W 081°04'0 0.0
2018-Apr-16 04:30N 32°05' W 081°04'0 0.1
2018-Apr-16 04:00N 32°05' W 081°04'510.3
2018-Apr-16 03:30N 32°08' W 081°09'0 0.0
2018-Apr-16 03:01N 32°08' W 081°09'0 0.9
2018-Apr-16 02:30N 32°08' W 081°08'2 4.3
2018-Apr-16 02:01N 32°06' W 081°07'3 5.1
2018-Apr-16 01:30N 32°05' W 081°04'3 5.3
2018-Apr-16 01:01N 32°06' W 081°01'2 4.7
2018-Apr-16 00:30N 32°05' W 081°04'0 0.0
2018-Apr-16 00:00N 32°05' W 081°04'0 0.0
2018-Apr-15 23:31N 32°05' W 081°04'0 0.0
2018-Apr-15 23:00N 32°05' W 081°04'3 6.4
2018-Apr-15 22:31N 32°06' W 081°07'2 3.0
2018-Apr-15 21:59N 32°08' W 081°08'0 0.9
2018-Apr-15 21:30N 32°07' W 081°08'0 0.0
2018-Apr-15 21:00N 32°07' W 081°08'0 0.0
2018-Apr-15 20:30N 32°07' W 081°08'0 0.0
2018-Apr-15 19:59N 32°07' W 081°08'0 0.0
2018-Apr-15 19:31N 32°07' W 081°08'0 0.0
2018-Apr-15 19:00N 32°07' W 081°08'0 0.0
2018-Apr-15 18:31N 32°07' W 081°08'0 0.0
2018-Apr-15 18:01N 32°07' W 081°08'0 0.0
2018-Apr-15 17:30N 32°07' W 081°08'0 0.4
2018-Apr-15 17:00N 32°07' W 081°08'0 0.0
2018-Apr-15 16:30N 32°07' W 081°08'0 0.7
2018-Apr-15 16:01N 32°08' W 081°08'2 4.2
2018-Apr-15 15:31N 32°06' W 081°07'0 0.9
2018-Apr-15 15:01N 32°06' W 081°07'2 4.4
2018-Apr-15 14:31N 32°08' W 081°09'0 0.6
2018-Apr-15 14:00N 32°08' W 081°08'2 4.5
2018-Apr-15 13:30N 32°06' W 081°07'2 5.0
2018-Apr-15 13:01N 32°05' W 081°05'2 4.7
2018-Apr-15 12:30N 32°05' W 081°02'1 2.1
2018-Apr-15 12:01N 32°05' W 081°03'1 1.6
2018-Apr-15 11:30N 32°05' W 081°04'0 0.0
2018-Apr-15 11:01N 32°05' W 081°04'2 3.3
2018-Apr-15 10:31N 32°05' W 081°06'3 5.4
2018-Apr-15 10:00N 32°07' W 081°08'1 1.7
2018-Apr-15 09:31N 32°06' W 081°07'3 6.1
2018-Apr-15 08:58N 32°05' W 081°04'0 0.0
2018-Apr-15 08:31N 32°05' W 081°04'0 0.0
2018-Apr-15 08:00N 32°05' W 081°04'0 0.0
2018-Apr-15 07:30N 32°05' W 081°04'0 0.0
2018-Apr-15 07:00N 32°05' W 081°04'0 0.0
2018-Apr-15 06:30N 32°05' W 081°04'0 0.0
2018-Apr-15 06:00N 32°05' W 081°04'0 0.0
2018-Apr-15 05:30N 32°05' W 081°04'0 0.0
2018-Apr-15 05:00N 32°05' W 081°04'0 0.0
2018-Apr-15 04:31N 32°05' W 081°04'1 1.7
2018-Apr-15 04:01N 32°05' W 081°05'4 8.6
2018-Apr-15 03:31N 32°08' W 081°08'0 0.0
2018-Apr-15 03:01N 32°08' W 081°08'0 0.8
2018-Apr-15 02:30N 32°08' W 081°08'2 4.5
2018-Apr-15 02:01N 32°06' W 081°06'2 4.9
2018-Apr-15 01:30N 32°05' W 081°04'2 4.5
2018-Apr-15 01:00N 32°06' W 081°01'2 4.6
2018-Apr-15 00:30N 32°05' W 081°04'2 2.4
2018-Apr-14 23:47N 32°05' W 081°06'2 6.0
2018-Apr-14 23:30N 32°05' W 081°04'2 3.6
2018-Apr-14 23:00N 32°05' W 081°06'2 3.2
2018-Apr-14 22:30N 32°07' W 081°07'2 3.8
2018-Apr-14 22:00N 32°08' W 081°08'0 0.2
2018-Apr-14 21:31N 32°08' W 081°08'0 0.2
2018-Apr-14 21:01N 32°08' W 081°09'0 1.0
2018-Apr-14 20:30N 32°08' W 081°08'1 1.1
2018-Apr-14 20:00N 32°07' W 081°08'1 1.8
2018-Apr-14 19:31N 32°08' W 081°08'2 3.9
2018-Apr-14 19:00N 32°06' W 081°07'2 4.6
2018-Apr-14 18:31N 32°05' W 081°05'1 2.1
2018-Apr-14 18:01N 32°05' W 081°04'0 0.0
2018-Apr-14 17:31N 32°05' W 081°04'0 0.0
2018-Apr-14 17:00N 32°05' W 081°04'0 0.0
2018-Apr-14 16:30N 32°05' W 081°04'0 0.0
2018-Apr-14 16:01N 32°05' W 081°04'0 0.0
2018-Apr-14 15:30N 32°05' W 081°04'0 0.0
2018-Apr-14 14:59N 32°05' W 081°04'0 0.0
2018-Apr-14 14:31N 32°05' W 081°04'0 0.0
2018-Apr-14 14:00N 32°05' W 081°04'0 0.0
2018-Apr-14 13:30N 32°05' W 081°04'0 0.0
2018-Apr-14 13:01N 32°05' W 081°04'0 0.0
2018-Apr-14 12:31N 32°05' W 081°04'0 0.0
2018-Apr-14 12:00N 32°05' W 081°04'3 5.1
2018-Apr-14 11:30N 32°06' W 081°07'2 3.3
2018-Apr-14 11:00N 32°07' W 081°08'1 1.6
2018-Apr-14 10:30N 32°08' W 081°08'1 1.6
2018-Apr-14 10:00N 32°07' W 081°08'0 0.7
2018-Apr-14 09:30N 32°07' W 081°08'0 0.3
2018-Apr-14 09:00N 32°08' W 081°08'1 2.0
2018-Apr-14 08:30N 32°07' W 081°07'0 0.8
2018-Apr-14 08:01N 32°07' W 081°08'3 6.8
2018-Apr-14 07:31N 32°05' W 081°05'1 1.6
2018-Apr-14 07:00N 32°05' W 081°04'0 0.0
2018-Apr-14 06:28N 32°05' W 081°04'0 0.0
2018-Apr-14 06:00N 32°05' W 081°04'0 0.0
2018-Apr-14 05:31N 32°05' W 081°04'0 0.0
2018-Apr-14 05:00N 32°05' W 081°04'0 0.0
2018-Apr-14 04:30N 32°05' W 081°04'0 0.0
2018-Apr-14 04:00N 32°05' W 081°04'0 0.0
2018-Apr-14 03:28N 32°05' W 081°04'0 0.0
2018-Apr-14 03:01N 32°05' W 081°04'0 0.0
2018-Apr-14 02:26N 32°05' W 081°04'0 0.0
2018-Apr-14 02:00N 32°05' W 081°04'2 3.8
2018-Apr-14 01:31N 32°05' W 081°06'1 1.8
2018-Apr-14 01:00N 32°06' W 081°07'1 1.3
2018-Apr-14 00:31N 32°07' W 081°07'0 0.6
2018-Apr-14 00:00N 32°07' W 081°08'2 3.7
2018-Apr-13 23:30N 32°08' W 081°09'0 0.9
2018-Apr-13 23:01N 32°08' W 081°08'2 4.5
2018-Apr-13 22:30N 32°06' W 081°07'3 5.2
2018-Apr-13 22:00N 32°05' W 081°04'3 6.7
2018-Apr-13 21:30N 32°06' W 081°01'0 1.0
2018-Apr-13 21:00N 32°06' W 081°01'4 8.2
2018-Apr-13 20:31N 32°05' W 081°06'4 7.5
2018-Apr-13 20:00N 32°08' W 081°09'0 0.5
2018-Apr-13 19:30N 32°08' W 081°08'2 4.5
2018-Apr-13 19:00N 32°06' W 081°07'3 5.6
2018-Apr-13 18:31N 32°05' W 081°04'1 1.8
2018-Apr-13 18:00N 32°05' W 081°03'1 1.8
2018-Apr-13 17:30N 32°05' W 081°04'0 0.0
2018-Apr-13 17:00N 32°05' W 081°04'0 0.0
2018-Apr-13 16:30N 32°05' W 081°04'0 0.0
2018-Apr-13 16:01N 32°05' W 081°04'0 0.0
2018-Apr-13 15:31N 32°05' W 081°04'0 0.0
2018-Apr-13 15:01N 32°05' W 081°04'0 0.0
2018-Apr-13 14:30N 32°05' W 081°04'0 0.0
2018-Apr-13 14:00N 32°05' W 081°04'0 0.0
2018-Apr-13 13:31N 32°05' W 081°04'0 0.0
2018-Apr-13 13:01N 32°05' W 081°04'0 0.0
2018-Apr-13 12:30N 32°05' W 081°04'0 0.0
2018-Apr-13 12:01N 32°05' W 081°04'0 0.0
2018-Apr-13 11:30N 32°05' W 081°04'0 0.0
2018-Apr-13 11:00N 32°05' W 081°04'0 0.0
2018-Apr-13 10:31N 32°05' W 081°04'0 0.0
2018-Apr-13 09:59N 32°05' W 081°04'0 0.0
2018-Apr-13 09:30N 32°05' W 081°04'0 0.0
2018-Apr-13 08:59N 32°05' W 081°04'1 2.8
2018-Apr-13 08:30N 32°05' W 081°05'4 7.2
2018-Apr-13 08:00N 32°08' W 081°08'0 0.7
2018-Apr-13 07:31N 32°07' W 081°08'0 0.3
2018-Apr-13 07:00N 32°07' W 081°08'0 0.0
2018-Apr-13 06:30N 32°07' W 081°08'0 0.0
2018-Apr-13 06:00N 32°07' W 081°08'0 0.0
2018-Apr-13 05:31N 32°07' W 081°08'0 0.0
2018-Apr-13 04:57N 32°07' W 081°08'1 1.3
2018-Apr-13 04:31N 32°08' W 081°08'1 1.3
2018-Apr-13 04:00N 32°07' W 081°08'0 0.3
2018-Apr-13 03:31N 32°07' W 081°08'0 0.0
2018-Apr-13 03:00N 32°07' W 081°08'0 0.0
2018-Apr-13 02:30N 32°07' W 081°08'0 0.0
2018-Apr-13 01:59N 32°07' W 081°08'2 3.3
2018-Apr-13 01:30N 32°06' W 081°07'3 7.2
2018-Apr-13 01:01N 32°05' W 081°03'2 3.4
2018-Apr-13 00:30N 32°05' W 081°05'3 5.4
2018-Apr-13 00:00N 32°07' W 081°07'2 4.1
2018-Apr-12 23:31N 32°08' W 081°09'0 0.1
2018-Apr-12 23:00N 32°08' W 081°09'1 1.1
2018-Apr-12 22:30N 32°08' W 081°08'0 0.0
2018-Apr-12 22:00N 32°08' W 081°08'1 1.0
2018-Apr-12 21:31N 32°07' W 081°08'1 1.0
2018-Apr-12 21:01N 32°08' W 081°08'2 4.5
2018-Apr-12 20:30N 32°06' W 081°07'1 1.5
2018-Apr-12 20:00N 32°05' W 081°06'1 1.6
2018-Apr-12 19:30N 32°06' W 081°07'0 0.0
2018-Apr-12 19:00N 32°06' W 081°07'3 5.4
2018-Apr-12 18:29N 32°05' W 081°04'0 0.0
2018-Apr-12 18:00N 32°05' W 081°04'0 0.0
2018-Apr-12 17:30N 32°05' W 081°04'0 0.0
2018-Apr-12 16:59N 32°05' W 081°04'0 0.0
2018-Apr-12 16:25N 32°05' W 081°04'0 0.0
2018-Apr-12 16:00N 32°05' W 081°04'0 0.0
2018-Apr-12 15:29N 32°05' W 081°04'0 0.0
2018-Apr-12 15:00N 32°05' W 081°04'0 0.1
2018-Apr-12 14:30N 32°05' W 081°04'0 0.1
2018-Apr-12 13:56N 32°05' W 081°04'0 0.2
2018-Apr-12 13:30N 32°05' W 081°04'0 0.2
2018-Apr-12 13:00N 32°05' W 081°04'0 0.0
2018-Apr-12 12:29N 32°05' W 081°04'0 0.0
2018-Apr-12 12:00N 32°05' W 081°04'3 6.8
2018-Apr-12 11:30N 32°07' W 081°07'1 2.9
2018-Apr-12 11:00N 32°08' W 081°08'0 0.4
2018-Apr-12 10:30N 32°08' W 081°09'0 0.0
2018-Apr-12 10:00N 32°08' W 081°09'1 2.1
2018-Apr-12 09:30N 32°07' W 081°08'0 0.0
2018-Apr-12 09:00N 32°07' W 081°08'0 0.0
2018-Apr-12 08:28N 32°07' W 081°08'0 0.0
2018-Apr-12 07:58N 32°07' W 081°08'0 0.0
2018-Apr-12 07:30N 32°07' W 081°08'0 0.0
2018-Apr-12 07:00N 32°07' W 081°08'0 0.0
2018-Apr-12 06:29N 32°07' W 081°08'0 0.0
2018-Apr-12 06:00N 32°07' W 081°08'0 0.0
2018-Apr-12 05:30N 32°07' W 081°08'0 0.0
2018-Apr-12 05:00N 32°07' W 081°08'0 0.0
2018-Apr-12 04:30N 32°07' W 081°08'0 0.0
2018-Apr-12 04:00N 32°07' W 081°08'0 0.0
2018-Apr-12 03:30N 32°07' W 081°08'0 0.0
2018-Apr-12 03:00N 32°07' W 081°08'0 0.0
2018-Apr-12 02:29N 32°07' W 081°08'0 0.0
2018-Apr-12 01:59N 32°07' W 081°08'0 0.0
2018-Apr-12 01:30N 32°07' W 081°08'0 0.0
2018-Apr-12 01:00N 32°07' W 081°08'1 1.2
2018-Apr-12 00:30N 32°08' W 081°08'0 0.5
2018-Apr-12 00:00N 32°08' W 081°08'0 0.1
2018-Apr-11 23:31N 32°08' W 081°08'2 4.6
2018-Apr-11 23:00N 32°06' W 081°07'1 2.8
2018-Apr-11 22:30N 32°07' W 081°08'2 3.4
2018-Apr-11 22:00N 32°09' W 081°09'0 0.9
2018-Apr-11 21:30N 32°08' W 081°08'1 1.5
2018-Apr-11 21:00N 32°07' W 081°08'0 0.8
2018-Apr-11 20:30N 32°08' W 081°08'2 3.2
2018-Apr-11 20:00N 32°07' W 081°07'1 2.9
2018-Apr-11 19:30N 32°05' W 081°06'0 0.0
2018-Apr-11 19:00N 32°05' W 081°06'2 3.2
2018-Apr-11 18:30N 32°05' W 081°04'1 2.3
2018-Apr-11 18:01N 32°05' W 081°06'2 4.4
2018-Apr-11 17:30N 32°07' W 081°08'1 2.4
2018-Apr-11 17:00N 32°08' W 081°08'0 0.1
2018-Apr-11 16:26N 32°08' W 081°08'0 0.0
2018-Apr-11 16:00N 32°08' W 081°08'0 0.0
2018-Apr-11 15:29N 32°08' W 081°08'2 3.8
2018-Apr-11 14:57N 32°06' W 081°07'3 5.7
2018-Apr-11 14:30N 32°05' W 081°05'1 1.3
2018-Apr-11 14:00N 32°05' W 081°04'0 0.0
2018-Apr-11 13:30N 32°05' W 081°04'0 0.0
2018-Apr-11 13:00N 32°05' W 081°04'0 0.0
2018-Apr-11 12:29N 32°05' W 081°04'0 0.0
2018-Apr-11 12:00N 32°05' W 081°04'0 0.0
2018-Apr-11 11:30N 32°05' W 081°04'0 0.0
2018-Apr-11 11:00N 32°05' W 081°04'0 0.0
2018-Apr-11 10:30N 32°05' W 081°04'4 7.7
2018-Apr-11 10:00N 32°07' W 081°08'1 1.2
2018-Apr-11 09:30N 32°07' W 081°08'0 0.4
2018-Apr-11 09:00N 32°07' W 081°08'2 4.7
2018-Apr-11 08:30N 32°05' W 081°06'0 0.0
2018-Apr-11 08:00N 32°05' W 081°06'0 0.0
2018-Apr-11 07:30N 32°05' W 081°06'0 0.0
2018-Apr-11 07:00N 32°05' W 081°06'2 5.0
2018-Apr-11 06:31N 32°07' W 081°08'0 0.1
2018-Apr-11 06:00N 32°07' W 081°08'0 0.4
2018-Apr-11 05:30N 32°07' W 081°08'0 0.0
2018-Apr-11 05:00N 32°07' W 081°08'1 2.3
2018-Apr-11 04:30N 32°06' W 081°07'1 1.1
2018-Apr-11 04:00N 32°07' W 081°08'0 0.7
2018-Apr-11 03:30N 32°07' W 081°08'0 0.5
2018-Apr-11 03:00N 32°07' W 081°08'3 5.0
2018-Apr-11 02:30N 32°05' W 081°06'1 3.0
2018-Apr-11 02:00N 32°05' W 081°04'0 0.0
2018-Apr-11 01:30N 32°05' W 081°04'0 0.0
2018-Apr-11 01:00N 32°05' W 081°04'0 0.0
2018-Apr-11 00:29N 32°05' W 081°04'0 0.0
2018-Apr-10 23:59N 32°05' W 081°04'0 0.0
2018-Apr-10 23:27N 32°05' W 081°04'0 0.0
2018-Apr-10 23:00N 32°05' W 081°04'3 6.6
2018-Apr-10 22:30N 32°06' W 081°07'0 0.9
2018-Apr-10 22:00N 32°06' W 081°07'0 0.3
2018-Apr-10 21:30N 32°06' W 081°07'0 0.0
2018-Apr-10 21:00N 32°06' W 081°07'2 4.2
2018-Apr-10 20:30N 32°08' W 081°08'0 0.7
2018-Apr-10 20:00N 32°08' W 081°09'  

Dump ship's entire track history